sensor_id;sensor_type;location;lat;lon;timestamp;temperature;humidity
78886;DHT22;68269;52.514;5.722;2024-01-07T00:00:40;3.10;70.80
78886;DHT22;68269;52.514;5.722;2024-01-07T00:03:09;3.10;70.80
78886;DHT22;68269;52.514;5.722;2024-01-07T00:05:39;3.10;70.80
78886;DHT22;68269;52.514;5.722;2024-01-07T00:08:08;3.10;70.80
78886;DHT22;68269;52.514;5.722;2024-01-07T00:10:37;3.10;70.80
78886;DHT22;68269;52.514;5.722;2024-01-07T00:13:06;3.10;70.80
78886;DHT22;68269;52.514;5.722;2024-01-07T00:15:36;3.10;70.80
78886;DHT22;68269;52.514;5.722;2024-01-07T00:18:07;3.10;70.80
78886;DHT22;68269;52.514;5.722;2024-01-07T00:20:37;3.10;70.80
78886;DHT22;68269;52.514;5.722;2024-01-07T00:23:06;3.10;70.80
78886;DHT22;68269;52.514;5.722;2024-01-07T00:25:35;3.10;70.70
78886;DHT22;68269;52.514;5.722;2024-01-07T00:28:05;3.10;70.70
78886;DHT22;68269;52.514;5.722;2024-01-07T00:30:35;3.10;70.70
78886;DHT22;68269;52.514;5.722;2024-01-07T00:33:07;3.10;70.70
78886;DHT22;68269;52.514;5.722;2024-01-07T00:35:36;3.10;70.70
78886;DHT22;68269;52.514;5.722;2024-01-07T00:38:05;3.10;70.60
78886;DHT22;68269;52.514;5.722;2024-01-07T00:40:35;3.10;70.70
78886;DHT22;68269;52.514;5.722;2024-01-07T00:43:05;3.10;70.70
78886;DHT22;68269;52.514;5.722;2024-01-07T00:45:34;3.10;70.70
78886;DHT22;68269;52.514;5.722;2024-01-07T00:48:04;3.10;70.70
78886;DHT22;68269;52.514;5.722;2024-01-07T00:50:36;3.10;70.60
78886;DHT22;68269;52.514;5.722;2024-01-07T00:53:05;3.10;70.60
78886;DHT22;68269;52.514;5.722;2024-01-07T00:55:34;3.10;70.70
78886;DHT22;68269;52.514;5.722;2024-01-07T00:58:04;3.10;70.70
78886;DHT22;68269;52.514;5.722;2024-01-07T01:00:33;3.10;70.70
78886;DHT22;68269;52.514;5.722;2024-01-07T01:03:02;3.10;70.60
78886;DHT22;68269;52.514;5.722;2024-01-07T01:05:32;3.10;70.70
78886;DHT22;68269;52.514;5.722;2024-01-07T01:08:05;3.10;70.70
78886;DHT22;68269;52.514;5.722;2024-01-07T01:10:34;3.10;70.70
78886;DHT22;68269;52.514;5.722;2024-01-07T01:13:04;3.10;70.70
78886;DHT22;68269;52.514;5.722;2024-01-07T01:15:33;3.10;70.70
78886;DHT22;68269;52.514;5.722;2024-01-07T01:18:03;3.10;70.70
78886;DHT22;68269;52.514;5.722;2024-01-07T01:20:32;3.10;70.70
78886;DHT22;68269;52.514;5.722;2024-01-07T01:23:04;3.10;70.70
78886;DHT22;68269;52.514;5.722;2024-01-07T01:25:33;3.10;70.60
78886;DHT22;68269;52.514;5.722;2024-01-07T01:28:03;3.10;70.60
78886;DHT22;68269;52.514;5.722;2024-01-07T01:30:32;3.10;70.60
78886;DHT22;68269;52.514;5.722;2024-01-07T01:33:01;3.10;70.60
78886;DHT22;68269;52.514;5.722;2024-01-07T01:35:31;3.10;70.60
78886;DHT22;68269;52.514;5.722;2024-01-07T01:38:00;3.20;70.60
78886;DHT22;68269;52.514;5.722;2024-01-07T01:40:32;3.10;70.60
78886;DHT22;68269;52.514;5.722;2024-01-07T01:43:01;3.10;70.70
78886;DHT22;68269;52.514;5.722;2024-01-07T01:45:30;3.10;70.70
78886;DHT22;68269;52.514;5.722;2024-01-07T01:48:00;3.10;70.70
78886;DHT22;68269;52.514;5.722;2024-01-07T01:50:29;3.10;70.70
78886;DHT22;68269;52.514;5.722;2024-01-07T01:52:59;3.10;70.70
78886;DHT22;68269;52.514;5.722;2024-01-07T01:55:31;3.10;70.70
78886;DHT22;68269;52.514;5.722;2024-01-07T01:58:01;3.10;70.70
78886;DHT22;68269;52.514;5.722;2024-01-07T02:00:30;3.10;70.70
78886;DHT22;68269;52.514;5.722;2024-01-07T02:02:59;3.10;70.70
78886;DHT22;68269;52.514;5.722;2024-01-07T02:05:28;3.10;70.70
78886;DHT22;68269;52.514;5.722;2024-01-07T02:07:58;3.10;70.70
78886;DHT22;68269;52.514;5.722;2024-01-07T02:10:31;3.10;70.70
78886;DHT22;68269;52.514;5.722;2024-01-07T02:13:03;3.00;70.70
78886;DHT22;68269;52.514;5.722;2024-01-07T02:15:32;3.00;70.70
78886;DHT22;68269;52.514;5.722;2024-01-07T02:18:02;3.00;70.80
78886;DHT22;68269;52.514;5.722;2024-01-07T02:20:31;2.90;70.80
78886;DHT22;68269;52.514;5.722;2024-01-07T02:23:02;3.00;70.80
78886;DHT22;68269;52.514;5.722;2024-01-07T02:25:37;2.90;70.80
78886;DHT22;68269;52.514;5.722;2024-01-07T02:28:06;2.90;70.90
78886;DHT22;68269;52.514;5.722;2024-01-07T02:30:36;2.90;70.80
78886;DHT22;68269;52.514;5.722;2024-01-07T02:33:05;2.90;70.80
78886;DHT22;68269;52.514;5.722;2024-01-07T02:35:36;2.90;70.80
78886;DHT22;68269;52.514;5.722;2024-01-07T02:38:05;2.90;70.90
78886;DHT22;68269;52.514;5.722;2024-01-07T02:40:37;2.90;70.80
78886;DHT22;68269;52.514;5.722;2024-01-07T02:43:06;2.90;70.80
78886;DHT22;68269;52.514;5.722;2024-01-07T02:45:35;2.80;70.80
78886;DHT22;68269;52.514;5.722;2024-01-07T02:48:05;2.90;70.90
78886;DHT22;68269;52.514;5.722;2024-01-07T02:50:35;2.80;70.90
78886;DHT22;68269;52.514;5.722;2024-01-07T02:53:04;2.90;70.90
78886;DHT22;68269;52.514;5.722;2024-01-07T02:55:37;2.80;70.90
78886;DHT22;68269;52.514;5.722;2024-01-07T02:58:06;2.80;70.90
78886;DHT22;68269;52.514;5.722;2024-01-07T03:00:35;2.80;70.90
78886;DHT22;68269;52.514;5.722;2024-01-07T03:03:05;2.80;70.90
78886;DHT22;68269;52.514;5.722;2024-01-07T03:05:34;2.80;70.80
78886;DHT22;68269;52.514;5.722;2024-01-07T03:08:04;2.80;70.90
78886;DHT22;68269;52.514;5.722;2024-01-07T03:10:33;2.80;70.90
78886;DHT22;68269;52.514;5.722;2024-01-07T03:13:05;2.90;70.80
78886;DHT22;68269;52.514;5.722;2024-01-07T03:15:35;2.90;70.80
78886;DHT22;68269;52.514;5.722;2024-01-07T03:18:04;2.90;70.70
78886;DHT22;68269;52.514;5.722;2024-01-07T03:20:34;2.80;70.80
78886;DHT22;68269;52.514;5.722;2024-01-07T03:23:03;2.80;70.80
78886;DHT22;68269;52.514;5.722;2024-01-07T03:25:33;2.80;70.80
78886;DHT22;68269;52.514;5.722;2024-01-07T03:28:05;2.90;70.80
78886;DHT22;68269;52.514;5.722;2024-01-07T03:30:34;2.90;70.70
78886;DHT22;68269;52.514;5.722;2024-01-07T03:33:04;2.90;70.70
78886;DHT22;68269;52.514;5.722;2024-01-07T03:35:33;2.90;70.80
78886;DHT22;68269;52.514;5.722;2024-01-07T03:38:03;2.80;70.80
78886;DHT22;68269;52.514;5.722;2024-01-07T03:40:32;2.80;70.80
78886;DHT22;68269;52.514;5.722;2024-01-07T03:43:01;2.80;70.80
78886;DHT22;68269;52.514;5.722;2024-01-07T03:45:33;2.80;70.80
78886;DHT22;68269;52.514;5.722;2024-01-07T03:48:03;2.80;70.80
78886;DHT22;68269;52.514;5.722;2024-01-07T03:50:32;2.80;70.80
78886;DHT22;68269;52.514;5.722;2024-01-07T03:53:02;2.80;70.80
78886;DHT22;68269;52.514;5.722;2024-01-07T03:55:31;2.80;70.80
78886;DHT22;68269;52.514;5.722;2024-01-07T03:58:00;2.80;70.80
78886;DHT22;68269;52.514;5.722;2024-01-07T04:00:30;2.90;70.70
78886;DHT22;68269;52.514;5.722;2024-01-07T04:03:02;2.90;70.70
78886;DHT22;68269;52.514;5.722;2024-01-07T04:05:31;2.90;70.70
78886;DHT22;68269;52.514;5.722;2024-01-07T04:08:01;2.90;70.70
78886;DHT22;68269;52.514;5.722;2024-01-07T04:10:31;2.80;70.70
78886;DHT22;68269;52.514;5.722;2024-01-07T04:13:00;2.80;70.70
78886;DHT22;68269;52.514;5.722;2024-01-07T04:15:29;2.80;70.70
78886;DHT22;68269;52.514;5.722;2024-01-07T04:18:04;2.80;70.70
78886;DHT22;68269;52.514;5.722;2024-01-07T04:20:33;2.80;70.70
78886;DHT22;68269;52.514;5.722;2024-01-07T04:23:03;2.90;70.70
78886;DHT22;68269;52.514;5.722;2024-01-07T04:25:32;2.90;70.60
78886;DHT22;68269;52.514;5.722;2024-01-07T04:28:01;2.90;70.60
78886;DHT22;68269;52.514;5.722;2024-01-07T04:30:31;2.90;70.50
78886;DHT22;68269;52.514;5.722;2024-01-07T04:33:02;2.90;70.50
78886;DHT22;68269;52.514;5.722;2024-01-07T04:35:32;2.90;70.50
78886;DHT22;68269;52.514;5.722;2024-01-07T04:38:01;2.90;70.50
78886;DHT22;68269;52.514;5.722;2024-01-07T04:40:31;2.90;70.50
78886;DHT22;68269;52.514;5.722;2024-01-07T04:43:00;2.90;70.50
78886;DHT22;68269;52.514;5.722;2024-01-07T04:45:29;2.90;70.50
78886;DHT22;68269;52.514;5.722;2024-01-07T04:47:58;2.90;70.50
78886;DHT22;68269;52.514;5.722;2024-01-07T04:50:30;2.90;70.50
78886;DHT22;68269;52.514;5.722;2024-01-07T04:52:59;2.80;70.50
78886;DHT22;68269;52.514;5.722;2024-01-07T04:55:30;2.80;70.50
78886;DHT22;68269;52.514;5.722;2024-01-07T04:57:59;2.80;70.50
78886;DHT22;68269;52.514;5.722;2024-01-07T05:00:30;2.80;70.60
78886;DHT22;68269;52.514;5.722;2024-01-07T05:02:59;2.80;70.50
78886;DHT22;68269;52.514;5.722;2024-01-07T05:05:31;2.80;70.50
78886;DHT22;68269;52.514;5.722;2024-01-07T05:08:02;2.80;70.50
78886;DHT22;68269;52.514;5.722;2024-01-07T05:10:32;2.80;70.50
78886;DHT22;68269;52.514;5.722;2024-01-07T05:13:01;2.80;70.50
78886;DHT22;68269;52.514;5.722;2024-01-07T05:15:32;2.80;70.50
78886;DHT22;68269;52.514;5.722;2024-01-07T05:18:02;2.90;70.50
78886;DHT22;68269;52.514;5.722;2024-01-07T05:20:34;2.80;70.50
78886;DHT22;68269;52.514;5.722;2024-01-07T05:23:03;2.80;70.50
78886;DHT22;68269;52.514;5.722;2024-01-07T05:25:33;2.80;70.50
78886;DHT22;68269;52.514;5.722;2024-01-07T05:28:02;2.80;70.50
78886;DHT22;68269;52.514;5.722;2024-01-07T05:30:32;2.80;70.50
78886;DHT22;68269;52.514;5.722;2024-01-07T05:33:01;2.80;70.40
78886;DHT22;68269;52.514;5.722;2024-01-07T05:35:33;2.80;70.50
78886;DHT22;68269;52.514;5.722;2024-01-07T05:38:04;2.80;70.50
78886;DHT22;68269;52.514;5.722;2024-01-07T05:40:33;2.80;70.50
78886;DHT22;68269;52.514;5.722;2024-01-07T05:43:02;2.80;70.50
78886;DHT22;68269;52.514;5.722;2024-01-07T05:45:31;2.80;70.40
78886;DHT22;68269;52.514;5.722;2024-01-07T05:48:01;2.80;70.40
78886;DHT22;68269;52.514;5.722;2024-01-07T05:50:32;2.80;70.40
78886;DHT22;68269;52.514;5.722;2024-01-07T05:53:02;2.80;70.30
78886;DHT22;68269;52.514;5.722;2024-01-07T05:55:31;2.80;70.40
78886;DHT22;68269;52.514;5.722;2024-01-07T05:58:01;2.80;70.40
78886;DHT22;68269;52.514;5.722;2024-01-07T06:00:30;2.80;70.40
78886;DHT22;68269;52.514;5.722;2024-01-07T06:02:59;2.70;70.50
78886;DHT22;68269;52.514;5.722;2024-01-07T06:05:29;2.70;70.50
78886;DHT22;68269;52.514;5.722;2024-01-07T06:08:01;2.70;70.50
78886;DHT22;68269;52.514;5.722;2024-01-07T06:10:31;2.70;70.50
78886;DHT22;68269;52.514;5.722;2024-01-07T06:13:00;2.70;70.40
78886;DHT22;68269;52.514;5.722;2024-01-07T06:15:29;2.70;70.40
78886;DHT22;68269;52.514;5.722;2024-01-07T06:17:58;2.60;70.40
78886;DHT22;68269;52.514;5.722;2024-01-07T06:20:28;2.60;70.40
78886;DHT22;68269;52.514;5.722;2024-01-07T06:22:57;2.60;70.30
78886;DHT22;68269;52.514;5.722;2024-01-07T06:25:29;2.60;70.30
78886;DHT22;68269;52.514;5.722;2024-01-07T06:27:58;2.60;70.40
78886;DHT22;68269;52.514;5.722;2024-01-07T06:30:28;2.50;70.40
78886;DHT22;68269;52.514;5.722;2024-01-07T06:32:57;2.50;70.40
78886;DHT22;68269;52.514;5.722;2024-01-07T06:35:26;2.50;70.30
78886;DHT22;68269;52.514;5.722;2024-01-07T06:37:57;2.50;70.30
78886;DHT22;68269;52.514;5.722;2024-01-07T06:40:28;2.50;70.30
78886;DHT22;68269;52.514;5.722;2024-01-07T06:42:58;2.50;70.30
78886;DHT22;68269;52.514;5.722;2024-01-07T06:45:28;2.50;70.20
78886;DHT22;68269;52.514;5.722;2024-01-07T06:47:57;2.50;70.30
78886;DHT22;68269;52.514;5.722;2024-01-07T06:50:27;2.50;70.20
78886;DHT22;68269;52.514;5.722;2024-01-07T06:52:56;2.50;70.20
78886;DHT22;68269;52.514;5.722;2024-01-07T06:55:25;2.50;70.20
78886;DHT22;68269;52.514;5.722;2024-01-07T06:57:57;2.40;70.30
78886;DHT22;68269;52.514;5.722;2024-01-07T07:00:26;2.40;70.30
78886;DHT22;68269;52.514;5.722;2024-01-07T07:02:55;2.50;70.20
78886;DHT22;68269;52.514;5.722;2024-01-07T07:05:25;2.40;70.20
78886;DHT22;68269;52.514;5.722;2024-01-07T07:07:54;2.40;70.20
78886;DHT22;68269;52.514;5.722;2024-01-07T07:10:23;2.40;70.20
78886;DHT22;68269;52.514;5.722;2024-01-07T07:12:52;2.30;70.20
78886;DHT22;68269;52.514;5.722;2024-01-07T07:15:24;2.30;70.30
78886;DHT22;68269;52.514;5.722;2024-01-07T07:17:55;2.30;70.30
78886;DHT22;68269;52.514;5.722;2024-01-07T07:20:24;2.30;70.20
78886;DHT22;68269;52.514;5.722;2024-01-07T07:22:53;2.30;70.20
78886;DHT22;68269;52.514;5.722;2024-01-07T07:25:23;2.30;70.20
78886;DHT22;68269;52.514;5.722;2024-01-07T07:27:52;2.20;70.10
78886;DHT22;68269;52.514;5.722;2024-01-07T07:30:25;2.20;70.10
78886;DHT22;68269;52.514;5.722;2024-01-07T07:32:54;2.20;70.00
78886;DHT22;68269;52.514;5.722;2024-01-07T07:35:23;2.20;70.10
78886;DHT22;68269;52.514;5.722;2024-01-07T07:37:52;2.20;70.00
78886;DHT22;68269;52.514;5.722;2024-01-07T07:40:22;2.20;70.00
78886;DHT22;68269;52.514;5.722;2024-01-07T07:42:51;2.20;70.00
78886;DHT22;68269;52.514;5.722;2024-01-07T07:45:20;2.20;70.00
78886;DHT22;68269;52.514;5.722;2024-01-07T07:47:52;2.20;70.00
78886;DHT22;68269;52.514;5.722;2024-01-07T07:50:21;2.20;69.90
78886;DHT22;68269;52.514;5.722;2024-01-07T07:52:51;2.20;70.00
78886;DHT22;68269;52.514;5.722;2024-01-07T07:55:20;2.10;69.90
78886;DHT22;68269;52.514;5.722;2024-01-07T07:57:49;2.10;69.90
78886;DHT22;68269;52.514;5.722;2024-01-07T08:00:19;2.10;69.90
78886;DHT22;68269;52.514;5.722;2024-01-07T08:02:48;2.10;69.80
78886;DHT22;68269;52.514;5.722;2024-01-07T08:05:20;2.10;69.90
78886;DHT22;68269;52.514;5.722;2024-01-07T08:07:49;2.00;69.90
78886;DHT22;68269;52.514;5.722;2024-01-07T08:10:20;2.00;69.90
78886;DHT22;68269;52.514;5.722;2024-01-07T08:12:49;2.00;69.90
78886;DHT22;68269;52.514;5.722;2024-01-07T08:15:19;2.00;69.90
78886;DHT22;68269;52.514;5.722;2024-01-07T08:17:48;2.00;69.90
78886;DHT22;68269;52.514;5.722;2024-01-07T08:20:20;2.00;69.90
78886;DHT22;68269;52.514;5.722;2024-01-07T08:22:49;2.00;69.90
78886;DHT22;68269;52.514;5.722;2024-01-07T08:25:19;2.00;69.80
78886;DHT22;68269;52.514;5.722;2024-01-07T08:27:49;2.00;69.80
78886;DHT22;68269;52.514;5.722;2024-01-07T08:30:18;2.00;69.70
78886;DHT22;68269;52.514;5.722;2024-01-07T08:32:47;2.10;69.60
78886;DHT22;68269;52.514;5.722;2024-01-07T08:35:17;2.10;69.60
78886;DHT22;68269;52.514;5.722;2024-01-07T08:37:48;2.10;69.50
78886;DHT22;68269;52.514;5.722;2024-01-07T08:40:18;2.10;69.50
78886;DHT22;68269;52.514;5.722;2024-01-07T08:42:47;2.10;69.50
78886;DHT22;68269;52.514;5.722;2024-01-07T08:45:17;2.20;69.40
78886;DHT22;68269;52.514;5.722;2024-01-07T08:47:46;2.20;69.30
78886;DHT22;68269;52.514;5.722;2024-01-07T08:50:15;2.20;69.30
78886;DHT22;68269;52.514;5.722;2024-01-07T08:52:45;2.20;69.30
78886;DHT22;68269;52.514;5.722;2024-01-07T08:55:16;2.30;69.20
78886;DHT22;68269;52.514;5.722;2024-01-07T08:57:46;2.30;69.20
78886;DHT22;68269;52.514;5.722;2024-01-07T09:00:16;2.30;69.20
78886;DHT22;68269;52.514;5.722;2024-01-07T09:02:45;2.40;69.10
78886;DHT22;68269;52.514;5.722;2024-01-07T09:05:15;2.40;69.00
78886;DHT22;68269;52.514;5.722;2024-01-07T09:07:44;2.40;69.00
78886;DHT22;68269;52.514;5.722;2024-01-07T09:10:16;2.40;69.00
78886;DHT22;68269;52.514;5.722;2024-01-07T09:12:46;2.40;69.00
78886;DHT22;68269;52.514;5.722;2024-01-07T09:15:18;2.40;68.90
78886;DHT22;68269;52.514;5.722;2024-01-07T09:17:47;2.40;68.90
78886;DHT22;68269;52.514;5.722;2024-01-07T09:20:17;2.40;68.90
78886;DHT22;68269;52.514;5.722;2024-01-07T09:22:46;2.50;68.80
78886;DHT22;68269;52.514;5.722;2024-01-07T09:25:18;2.50;68.80
78886;DHT22;68269;52.514;5.722;2024-01-07T09:27:48;2.50;68.60
78886;DHT22;68269;52.514;5.722;2024-01-07T09:30:17;2.60;68.60
78886;DHT22;68269;52.514;5.722;2024-01-07T09:32:46;2.70;68.50
78886;DHT22;68269;52.514;5.722;2024-01-07T09:35:16;2.70;68.40
78886;DHT22;68269;52.514;5.722;2024-01-07T09:37:45;2.70;68.30
78886;DHT22;68269;52.514;5.722;2024-01-07T09:40:19;2.70;68.40
78886;DHT22;68269;52.514;5.722;2024-01-07T09:42:50;2.70;68.40
78886;DHT22;68269;52.514;5.722;2024-01-07T09:45:20;2.60;68.40
78886;DHT22;68269;52.514;5.722;2024-01-07T09:47:50;2.50;68.40
78886;DHT22;68269;52.514;5.722;2024-01-07T09:50:19;2.50;68.40
78886;DHT22;68269;52.514;5.722;2024-01-07T09:52:51;2.50;68.40
78886;DHT22;68269;52.514;5.722;2024-01-07T09:55:33;2.50;68.40
78886;DHT22;68269;52.514;5.722;2024-01-07T09:58:02;2.50;68.40
78886;DHT22;68269;52.514;5.722;2024-01-07T10:00:32;2.50;68.40
78886;DHT22;68269;52.514;5.722;2024-01-07T10:03:02;2.50;68.40
78886;DHT22;68269;52.514;5.722;2024-01-07T10:05:31;2.60;68.30
78886;DHT22;68269;52.514;5.722;2024-01-07T10:08:01;2.70;68.30
78886;DHT22;68269;52.514;5.722;2024-01-07T10:10:35;2.70;68.30
78886;DHT22;68269;52.514;5.722;2024-01-07T10:13:07;2.80;68.10
78886;DHT22;68269;52.514;5.722;2024-01-07T10:15:37;2.80;68.10
78886;DHT22;68269;52.514;5.722;2024-01-07T10:18:07;2.80;68.10
78886;DHT22;68269;52.514;5.722;2024-01-07T10:20:36;2.80;68.10
78886;DHT22;68269;52.514;5.722;2024-01-07T10:23:05;2.90;68.00
78886;DHT22;68269;52.514;5.722;2024-01-07T10:25:38;2.90;67.90
78886;DHT22;68269;52.514;5.722;2024-01-07T10:28:08;2.90;67.80
78886;DHT22;68269;52.514;5.722;2024-01-07T10:30:38;2.90;67.80
78886;DHT22;68269;52.514;5.722;2024-01-07T10:33:08;3.00;67.80
78886;DHT22;68269;52.514;5.722;2024-01-07T10:35:38;3.00;67.70
78886;DHT22;68269;52.514;5.722;2024-01-07T10:38:09;3.10;67.60
78886;DHT22;68269;52.514;5.722;2024-01-07T10:40:41;3.20;67.50
78886;DHT22;68269;52.514;5.722;2024-01-07T10:43:13;3.10;67.40
78886;DHT22;68269;52.514;5.722;2024-01-07T10:45:47;3.20;67.50
78886;DHT22;68269;52.514;5.722;2024-01-07T10:48:18;3.30;67.30
78886;DHT22;68269;52.514;5.722;2024-01-07T10:50:48;3.30;67.20
78886;DHT22;68269;52.514;5.722;2024-01-07T10:53:21;3.30;67.20
78886;DHT22;68269;52.514;5.722;2024-01-07T10:55:57;3.30;67.20
78886;DHT22;68269;52.514;5.722;2024-01-07T10:58:31;3.30;67.30
78886;DHT22;68269;52.514;5.722;2024-01-07T11:01:02;3.30;67.30
78886;DHT22;68269;52.514;5.722;2024-01-07T11:03:38;3.20;67.30
78886;DHT22;68269;52.514;5.722;2024-01-07T11:06:16;3.20;67.30
78886;DHT22;68269;52.514;5.722;2024-01-07T11:08:51;3.30;67.30
78886;DHT22;68269;52.514;5.722;2024-01-07T11:11:26;3.30;67.20
78886;DHT22;68269;52.514;5.722;2024-01-07T11:14:00;3.20;67.20
78886;DHT22;68269;52.514;5.722;2024-01-07T11:16:42;3.20;67.20
78886;DHT22;68269;52.514;5.722;2024-01-07T11:19:13;3.10;67.20
78886;DHT22;68269;52.514;5.722;2024-01-07T11:21:43;3.30;67.20
78886;DHT22;68269;52.514;5.722;2024-01-07T11:24:39;3.30;67.20
78886;DHT22;68269;52.514;5.722;2024-01-07T11:27:11;3.30;67.00
78886;DHT22;68269;52.514;5.722;2024-01-07T11:29:41;3.40;66.90
78886;DHT22;68269;52.514;5.722;2024-01-07T11:32:12;3.40;66.80
78886;DHT22;68269;52.514;5.722;2024-01-07T11:34:43;3.50;66.80
78886;DHT22;68269;52.514;5.722;2024-01-07T11:37:15;3.50;66.70
78886;DHT22;68269;52.514;5.722;2024-01-07T11:39:45;3.60;66.60
78886;DHT22;68269;52.514;5.722;2024-01-07T11:42:18;3.60;66.60
78886;DHT22;68269;52.514;5.722;2024-01-07T11:44:50;3.60;66.50
78886;DHT22;68269;52.514;5.722;2024-01-07T11:47:20;3.60;66.50
78886;DHT22;68269;52.514;5.722;2024-01-07T11:49:49;3.60;66.50
78886;DHT22;68269;52.514;5.722;2024-01-07T11:52:20;3.60;66.60
78886;DHT22;68269;52.514;5.722;2024-01-07T11:54:49;3.60;66.60
78886;DHT22;68269;52.514;5.722;2024-01-07T11:57:22;3.50;66.70
78886;DHT22;68269;52.514;5.722;2024-01-07T11:59:51;3.50;66.80
78886;DHT22;68269;52.514;5.722;2024-01-07T12:02:21;3.40;66.90
78886;DHT22;68269;52.514;5.722;2024-01-07T12:04:52;3.40;66.90
78886;DHT22;68269;52.514;5.722;2024-01-07T12:07:21;3.30;66.90
78886;DHT22;68269;52.514;5.722;2024-01-07T12:09:55;3.30;66.90
78886;DHT22;68269;52.514;5.722;2024-01-07T12:12:27;3.20;67.00
78886;DHT22;68269;52.514;5.722;2024-01-07T12:14:57;3.10;67.00
78886;DHT22;68269;52.514;5.722;2024-01-07T12:17:26;3.10;67.00
78886;DHT22;68269;52.514;5.722;2024-01-07T12:19:56;3.10;67.00
78886;DHT22;68269;52.514;5.722;2024-01-07T12:22:27;3.10;66.90
78886;DHT22;68269;52.514;5.722;2024-01-07T12:25:02;3.10;66.80
78886;DHT22;68269;52.514;5.722;2024-01-07T12:27:34;3.20;66.80
78886;DHT22;68269;52.514;5.722;2024-01-07T12:30:05;3.20;66.70
78886;DHT22;68269;52.514;5.722;2024-01-07T12:32:35;3.10;66.70
78886;DHT22;68269;52.514;5.722;2024-01-07T12:35:05;3.10;66.70
78886;DHT22;68269;52.514;5.722;2024-01-07T12:37:37;3.10;66.70
78886;DHT22;68269;52.514;5.722;2024-01-07T12:40:07;3.10;66.70
78886;DHT22;68269;52.514;5.722;2024-01-07T12:42:41;3.10;66.70
78886;DHT22;68269;52.514;5.722;2024-01-07T12:45:14;3.10;66.60
78886;DHT22;68269;52.514;5.722;2024-01-07T12:47:43;3.10;66.60
78886;DHT22;68269;52.514;5.722;2024-01-07T12:50:13;3.10;66.60
78886;DHT22;68269;52.514;5.722;2024-01-07T12:52:42;3.10;66.60
78886;DHT22;68269;52.514;5.722;2024-01-07T12:55:12;3.10;66.60
78886;DHT22;68269;52.514;5.722;2024-01-07T12:57:44;3.20;66.50
78886;DHT22;68269;52.514;5.722;2024-01-07T13:00:14;3.10;66.50
78886;DHT22;68269;52.514;5.722;2024-01-07T13:02:44;3.10;66.50
78886;DHT22;68269;52.514;5.722;2024-01-07T13:05:13;3.20;66.50
78886;DHT22;68269;52.514;5.722;2024-01-07T13:07:42;3.30;66.50
78886;DHT22;68269;52.514;5.722;2024-01-07T13:10:12;3.30;66.30
78886;DHT22;68269;52.514;5.722;2024-01-07T13:12:44;3.40;66.20
78886;DHT22;68269;52.514;5.722;2024-01-07T13:15:13;3.40;66.20
78886;DHT22;68269;52.514;5.722;2024-01-07T13:17:43;3.30;66.30
78886;DHT22;68269;52.514;5.722;2024-01-07T13:20:12;3.50;66.40
78886;DHT22;68269;52.514;5.722;2024-01-07T13:22:41;3.60;66.20
78886;DHT22;68269;52.514;5.722;2024-01-07T13:25:10;3.70;66.00
78886;DHT22;68269;52.514;5.722;2024-01-07T13:27:40;3.70;65.80
78886;DHT22;68269;52.514;5.722;2024-01-07T13:30:12;3.70;65.80
78886;DHT22;68269;52.514;5.722;2024-01-07T13:32:42;3.60;65.80
78886;DHT22;68269;52.514;5.722;2024-01-07T13:35:12;3.50;66.00
78886;DHT22;68269;52.514;5.722;2024-01-07T13:37:41;3.50;66.10
78886;DHT22;68269;52.514;5.722;2024-01-07T13:40:12;3.40;66.20
78886;DHT22;68269;52.514;5.722;2024-01-07T13:42:43;3.30;66.20
78886;DHT22;68269;52.514;5.722;2024-01-07T13:45:20;3.30;66.20
78886;DHT22;68269;52.514;5.722;2024-01-07T13:47:49;3.20;66.40
78886;DHT22;68269;52.514;5.722;2024-01-07T13:50:18;3.10;66.40
78886;DHT22;68269;52.514;5.722;2024-01-07T13:52:48;3.10;66.40
78886;DHT22;68269;52.514;5.722;2024-01-07T13:55:17;3.20;66.40
78886;DHT22;68269;52.514;5.722;2024-01-07T13:57:46;3.20;66.20
78886;DHT22;68269;52.514;5.722;2024-01-07T14:00:19;3.30;66.20
78886;DHT22;68269;52.514;5.722;2024-01-07T14:02:48;3.30;66.10
78886;DHT22;68269;52.514;5.722;2024-01-07T14:05:18;3.30;66.10
78886;DHT22;68269;52.514;5.722;2024-01-07T14:07:47;3.30;66.00
78886;DHT22;68269;52.514;5.722;2024-01-07T14:10:18;3.40;66.00
78886;DHT22;68269;52.514;5.722;2024-01-07T14:12:47;3.40;66.00
78886;DHT22;68269;52.514;5.722;2024-01-07T14:15:20;3.30;66.00
78886;DHT22;68269;52.514;5.722;2024-01-07T14:17:49;3.30;66.00
78886;DHT22;68269;52.514;5.722;2024-01-07T14:20:21;3.30;66.00
78886;DHT22;68269;52.514;5.722;2024-01-07T14:22:51;3.20;66.20
78886;DHT22;68269;52.514;5.722;2024-01-07T14:25:20;3.10;66.20
78886;DHT22;68269;52.514;5.722;2024-01-07T14:27:49;3.10;66.30
78886;DHT22;68269;52.514;5.722;2024-01-07T14:30:21;3.10;66.30
78886;DHT22;68269;52.514;5.722;2024-01-07T14:32:51;3.10;66.30
78886;DHT22;68269;52.514;5.722;2024-01-07T14:35:20;3.10;66.30
78886;DHT22;68269;52.514;5.722;2024-01-07T14:37:50;3.10;66.30
78886;DHT22;68269;52.514;5.722;2024-01-07T14:40:20;3.10;66.30
78886;DHT22;68269;52.514;5.722;2024-01-07T14:42:49;3.10;66.20
78886;DHT22;68269;52.514;5.722;2024-01-07T14:45:23;3.10;66.20
78886;DHT22;68269;52.514;5.722;2024-01-07T14:47:52;3.20;66.10
78886;DHT22;68269;52.514;5.722;2024-01-07T14:50:22;3.20;66.00
78886;DHT22;68269;52.514;5.722;2024-01-07T14:52:51;3.20;66.00
78886;DHT22;68269;52.514;5.722;2024-01-07T14:55:20;3.30;65.90
78886;DHT22;68269;52.514;5.722;2024-01-07T14:57:50;3.30;65.90
78886;DHT22;68269;52.514;5.722;2024-01-07T15:00:19;3.30;65.80
78886;DHT22;68269;52.514;5.722;2024-01-07T15:02:52;3.30;65.80
78886;DHT22;68269;52.514;5.722;2024-01-07T15:05:21;3.20;65.90
78886;DHT22;68269;52.514;5.722;2024-01-07T15:07:50;3.10;66.00
78886;DHT22;68269;52.514;5.722;2024-01-07T15:10:20;3.10;66.10
78886;DHT22;68269;52.514;5.722;2024-01-07T15:12:49;3.00;66.10
78886;DHT22;68269;52.514;5.722;2024-01-07T15:15:18;2.90;66.30
78886;DHT22;68269;52.514;5.722;2024-01-07T15:17:48;2.90;66.30
78886;DHT22;68269;52.514;5.722;2024-01-07T15:20:20;2.80;66.40
78886;DHT22;68269;52.514;5.722;2024-01-07T15:22:50;2.80;66.50
78886;DHT22;68269;52.514;5.722;2024-01-07T15:25:19;2.70;66.50
78886;DHT22;68269;52.514;5.722;2024-01-07T15:27:49;2.70;66.50
78886;DHT22;68269;52.514;5.722;2024-01-07T15:30:18;2.70;66.50
78886;DHT22;68269;52.514;5.722;2024-01-07T15:32:47;2.60;66.50
78886;DHT22;68269;52.514;5.722;2024-01-07T15:35:17;2.60;66.60
78886;DHT22;68269;52.514;5.722;2024-01-07T15:37:48;2.50;66.60
78886;DHT22;68269;52.514;5.722;2024-01-07T15:40:18;2.50;66.70
78886;DHT22;68269;52.514;5.722;2024-01-07T15:42:47;2.50;66.70
78886;DHT22;68269;52.514;5.722;2024-01-07T15:45:17;2.50;66.80
78886;DHT22;68269;52.514;5.722;2024-01-07T15:47:46;2.50;66.80
78886;DHT22;68269;52.514;5.722;2024-01-07T15:50:15;2.50;66.70
78886;DHT22;68269;52.514;5.722;2024-01-07T15:52:44;2.40;66.70
78886;DHT22;68269;52.514;5.722;2024-01-07T15:55:18;2.40;66.70
78886;DHT22;68269;52.514;5.722;2024-01-07T15:57:47;2.40;66.80
78886;DHT22;68269;52.514;5.722;2024-01-07T16:00:17;2.40;66.70
78886;DHT22;68269;52.514;5.722;2024-01-07T16:02:46;2.30;66.80